KAC177 MKJS-TJSJ
Flight info
| Callsign | KAC177 |
|---|---|
| Flight time | 1h 31m |
| Altitude | 37000 |
| Route | ELUTU5 ALMUS DCT KEBET UL577 CDO UT15 MELLA JOSHE3 |
| Aircraft | B77W/H-SDE1E2E3FGHIJ2J3J4J5M1RWXY/LB1D1 |
Departure
| Time | 2026-04-27 21:55 |
|---|---|
| Airport | Sangster International Airport (MKJS) |
Arrival
| Time | 2026-04-27 23:26 |
|---|---|
| Airport | Luis Munoz Marin International Airport (TJSJ) |
| Time | Latitude | Longitude | Altitude | Speed | Heading |
|---|---|---|---|---|---|
| 2026-04-27 21:16 | 18.50013 | -77.91368 | 15 ft | 0 kts | 185° |
| 2026-04-27 21:45 | 18.50028 | -77.91367 | 16 ft | 4 kts | 181° |
| 2026-04-27 21:45 | 18.50055 | -77.91367 | 15 ft | 4 kts | 181° |
| 2026-04-27 21:46 | 18.50081 | -77.91363 | 15 ft | 3 kts | 206° |
| 2026-04-27 21:46 | 18.50100 | -77.91351 | 15 ft | 4 kts | 231° |
| 2026-04-27 21:46 | 18.50112 | -77.91327 | 15 ft | 4 kts | 247° |
| 2026-04-27 21:46 | 18.50114 | -77.91321 | 15 ft | 0 kts | 244° |
| 2026-04-27 21:49 | 18.50111 | -77.91326 | 15 ft | 2 kts | 244° |
| 2026-04-27 21:49 | 18.50095 | -77.91362 | 15 ft | 6 kts | 244° |
| 2026-04-27 21:50 | 18.50075 | -77.91407 | 15 ft | 7 kts | 244° |
| 2026-04-27 21:50 | 18.50054 | -77.91457 | 15 ft | 8 kts | 246° |
| 2026-04-27 21:50 | 18.50030 | -77.91513 | 15 ft | 9 kts | 245° |
| 2026-04-27 21:50 | 18.50038 | -77.91570 | 16 ft | 9 kts | 315° |
| 2026-04-27 21:51 | 18.50056 | -77.91630 | 15 ft | 9 kts | 258° |
| 2026-04-27 21:51 | 18.50031 | -77.91694 | 16 ft | 10 kts | 247° |
| 2026-04-27 21:51 | 18.50004 | -77.91758 | 16 ft | 10 kts | 245° |
| 2026-04-27 21:51 | 18.49977 | -77.91821 | 16 ft | 10 kts | 245° |
| 2026-04-27 21:52 | 18.49949 | -77.91885 | 16 ft | 11 kts | 245° |
| 2026-04-27 21:52 | 18.49910 | -77.91974 | 16 ft | 15 kts | 245° |
| 2026-04-27 21:52 | 18.49859 | -77.92087 | 16 ft | 19 kts | 244° |
| 2026-04-27 21:52 | 18.49798 | -77.92224 | 15 ft | 22 kts | 245° |
| 2026-04-27 21:53 | 18.49746 | -77.92361 | 15 ft | 17 kts | 268° |
| 2026-04-27 21:53 | 18.49828 | -77.92440 | 15 ft | 16 kts | 341° |
| 2026-04-27 21:53 | 18.49901 | -77.92403 | 16 ft | 12 kts | 61° |
| 2026-04-27 21:53 | 18.49917 | -77.92370 | 18 ft | 0 kts | 64° |
| 2026-04-27 21:54 | 18.50005 | -77.92169 | 18 ft | 87 kts | 65° |
| 2026-04-27 21:54 | 18.50439 | -77.91183 | 151 ft | 198 kts | 65° |
| 2026-04-27 21:55 | 18.51051 | -77.89765 | 1673 ft | 214 kts | 65° |
| 2026-04-27 21:55 | 18.51488 | -77.88826 | 2740 ft | 222 kts | 58° |
| 2026-04-27 21:55 | 18.52516 | -77.87483 | 3257 ft | 252 kts | 47° |
| 2026-04-27 21:55 | 18.53743 | -77.86085 | 4152 ft | 264 kts | 49° |
| 2026-04-27 21:56 | 18.54981 | -77.84622 | 5245 ft | 271 kts | 49° |
| 2026-04-27 21:56 | 18.57034 | -77.81335 | 7324 ft | 277 kts | 82° |
| 2026-04-27 21:56 | 18.56836 | -77.79331 | 8267 ft | 283 kts | 110° |
| 2026-04-27 21:57 | 18.56031 | -77.77435 | 9061 ft | 289 kts | 115° |
| 2026-04-27 21:57 | 18.55230 | -77.75478 | 9928 ft | 291 kts | 111° |
| 2026-04-27 21:57 | 18.54449 | -77.73453 | 10647 ft | 309 kts | 113° |
| 2026-04-27 21:57 | 18.53518 | -77.71281 | 10962 ft | 343 kts | 115° |
| 2026-04-27 21:58 | 18.52485 | -77.68931 | 11367 ft | 364 kts | 114° |
| 2026-04-27 21:58 | 18.51424 | -77.66465 | 12218 ft | 372 kts | 114° |
| 2026-04-27 21:58 | 18.50355 | -77.63971 | 13114 ft | 376 kts | 114° |
| 2026-04-27 21:58 | 18.49290 | -77.61424 | 14039 ft | 382 kts | 114° |
| 2026-04-27 21:59 | 18.48210 | -77.58843 | 15011 ft | 387 kts | 114° |
| 2026-04-27 21:59 | 18.47355 | -77.56142 | 15761 ft | 395 kts | 100° |
| 2026-04-27 21:59 | 18.47086 | -77.53227 | 16377 ft | 406 kts | 94° |
| 2026-04-27 21:59 | 18.46922 | -77.50225 | 17165 ft | 413 kts | 93° |
| 2026-04-27 22:00 | 18.46766 | -77.47184 | 18069 ft | 417 kts | 93° |
| 2026-04-27 22:00 | 18.46598 | -77.44117 | 18899 ft | 423 kts | 93° |
| 2026-04-27 22:00 | 18.46413 | -77.41006 | 19644 ft | 430 kts | 94° |
| 2026-04-27 22:00 | 18.46210 | -77.37840 | 20357 ft | 437 kts | 94° |
| 2026-04-27 22:01 | 18.45993 | -77.34628 | 21098 ft | 442 kts | 94° |
| 2026-04-27 22:01 | 18.45765 | -77.31376 | 21807 ft | 448 kts | 94° |
| 2026-04-27 22:01 | 18.45531 | -77.28084 | 22489 ft | 454 kts | 94° |
| 2026-04-27 22:01 | 18.45294 | -77.24782 | 23140 ft | 460 kts | 94° |
| 2026-04-27 22:02 | 18.45051 | -77.21405 | 23798 ft | 465 kts | 94° |
| 2026-04-27 22:02 | 18.44806 | -77.17990 | 24420 ft | 470 kts | 95° |
| 2026-04-27 22:02 | 18.44555 | -77.14531 | 24984 ft | 476 kts | 95° |
| 2026-04-27 22:02 | 18.44300 | -77.11032 | 25536 ft | 482 kts | 95° |
| 2026-04-27 22:03 | 18.44042 | -77.07488 | 26100 ft | 487 kts | 95° |
| 2026-04-27 22:03 | 18.43783 | -77.03908 | 26663 ft | 492 kts | 96° |
| 2026-04-27 22:03 | 18.43518 | -77.00292 | 27231 ft | 497 kts | 96° |
| 2026-04-27 22:03 | 18.43252 | -76.96649 | 27723 ft | 502 kts | 96° |
| 2026-04-27 22:04 | 18.42978 | -76.92963 | 28238 ft | 507 kts | 96° |
| 2026-04-27 22:04 | 18.42707 | -76.89297 | 28699 ft | 512 kts | 96° |
| 2026-04-27 22:04 | 18.42432 | -76.85530 | 29159 ft | 517 kts | 97° |
| 2026-04-27 22:04 | 18.42154 | -76.81738 | 29608 ft | 521 kts | 97° |
| 2026-04-27 22:05 | 18.41872 | -76.77914 | 30075 ft | 525 kts | 97° |
| 2026-04-27 22:05 | 18.41584 | -76.74050 | 30517 ft | 529 kts | 97° |
| 2026-04-27 22:05 | 18.41295 | -76.70172 | 30940 ft | 532 kts | 97° |
| 2026-04-27 22:05 | 18.41006 | -76.66281 | 31388 ft | 534 kts | 97° |
| 2026-04-27 22:06 | 18.40720 | -76.62423 | 31928 ft | 533 kts | 97° |
| 2026-04-27 22:06 | 18.40430 | -76.58534 | 32514 ft | 530 kts | 98° |
| 2026-04-27 22:06 | 18.40141 | -76.54673 | 33096 ft | 528 kts | 98° |
| 2026-04-27 22:06 | 18.39850 | -76.50818 | 33635 ft | 527 kts | 98° |
| 2026-04-27 22:07 | 18.39558 | -76.46971 | 34152 ft | 525 kts | 98° |
| 2026-04-27 22:07 | 18.39267 | -76.43135 | 34635 ft | 524 kts | 98° |
| 2026-04-27 22:07 | 18.38977 | -76.39320 | 35098 ft | 523 kts | 98° |
| 2026-04-27 22:07 | 18.38685 | -76.35500 | 35570 ft | 521 kts | 98° |
| 2026-04-27 22:08 | 18.38394 | -76.31696 | 35970 ft | 520 kts | 98° |
| 2026-04-27 22:08 | 18.37812 | -76.24113 | 35975 ft | 522 kts | 98° |
| 2026-04-27 22:09 | 18.37227 | -76.16523 | 35969 ft | 519 kts | 98° |
| 2026-04-27 22:09 | 18.36639 | -76.08944 | 35973 ft | 518 kts | 98° |
| 2026-04-27 22:10 | 18.36047 | -76.01377 | 35973 ft | 518 kts | 98° |
| 2026-04-27 22:10 | 18.35456 | -75.93820 | 35977 ft | 519 kts | 98° |
| 2026-04-27 22:11 | 18.34858 | -75.86242 | 35977 ft | 520 kts | 98° |
| 2026-04-27 22:11 | 18.34256 | -75.78659 | 35968 ft | 520 kts | 98° |
| 2026-04-27 22:12 | 18.33657 | -75.71112 | 35982 ft | 520 kts | 98° |
| 2026-04-27 22:12 | 18.33046 | -75.63472 | 35982 ft | 521 kts | 98° |
| 2026-04-27 22:13 | 18.32439 | -75.55906 | 35983 ft | 521 kts | 98° |
| 2026-04-27 22:13 | 18.31823 | -75.48289 | 35982 ft | 521 kts | 98° |
| 2026-04-27 22:14 | 18.31206 | -75.40683 | 35981 ft | 521 kts | 98° |
| 2026-04-27 22:14 | 18.30589 | -75.33114 | 35980 ft | 522 kts | 98° |
| 2026-04-27 22:15 | 18.29967 | -75.25514 | 35979 ft | 521 kts | 98° |
| 2026-04-27 22:15 | 18.29343 | -75.17907 | 35994 ft | 521 kts | 99° |
| 2026-04-27 22:16 | 18.28711 | -75.10320 | 35978 ft | 521 kts | 99° |
| 2026-04-27 22:16 | 18.28078 | -75.02724 | 35981 ft | 521 kts | 99° |
| 2026-04-27 22:17 | 18.27445 | -74.95135 | 35981 ft | 521 kts | 99° |
| 2026-04-27 22:17 | 18.26812 | -74.87579 | 35985 ft | 521 kts | 99° |
| 2026-04-27 22:18 | 18.26170 | -74.79977 | 35981 ft | 522 kts | 99° |
| 2026-04-27 22:18 | 18.25525 | -74.72362 | 35984 ft | 522 kts | 99° |
| 2026-04-27 22:19 | 18.25277 | -74.64699 | 35977 ft | 527 kts | 90° |
| 2026-04-27 22:19 | 18.26192 | -74.57016 | 35988 ft | 530 kts | 84° |
| 2026-04-27 22:20 | 18.27363 | -74.49367 | 35981 ft | 530 kts | 84° |
| 2026-04-27 22:20 | 18.28498 | -74.41753 | 35980 ft | 529 kts | 84° |
| 2026-04-27 22:21 | 18.29593 | -74.34095 | 35982 ft | 529 kts | 85° |
| 2026-04-27 22:21 | 18.30676 | -74.26416 | 35985 ft | 530 kts | 85° |
| 2026-04-27 22:22 | 18.31757 | -74.18744 | 35981 ft | 530 kts | 85° |
| 2026-04-27 22:22 | 18.32834 | -74.11061 | 35980 ft | 530 kts | 85° |
| 2026-04-27 22:23 | 18.33908 | -74.03444 | 35984 ft | 530 kts | 85° |
| 2026-04-27 22:23 | 18.34989 | -73.95756 | 35977 ft | 530 kts | 85° |
| 2026-04-27 22:24 | 18.36055 | -73.88092 | 35946 ft | 527 kts | 85° |
| 2026-04-27 22:24 | 18.37118 | -73.80473 | 35972 ft | 527 kts | 85° |
| 2026-04-27 22:25 | 18.38180 | -73.72834 | 35974 ft | 528 kts | 85° |
| 2026-04-27 22:25 | 18.39242 | -73.65156 | 35972 ft | 530 kts | 85° |
| 2026-04-27 22:26 | 18.40303 | -73.57465 | 35974 ft | 531 kts | 85° |
| 2026-04-27 22:26 | 18.41362 | -73.49761 | 35972 ft | 532 kts | 85° |
| 2026-04-27 22:27 | 18.42419 | -73.42052 | 35973 ft | 532 kts | 85° |
| 2026-04-27 22:27 | 18.43476 | -73.34336 | 35969 ft | 531 kts | 85° |
| 2026-04-27 22:28 | 18.44524 | -73.26648 | 35982 ft | 530 kts | 85° |
| 2026-04-27 22:28 | 18.45570 | -73.18953 | 35976 ft | 530 kts | 85° |
| 2026-04-27 22:29 | 18.46609 | -73.11271 | 35969 ft | 530 kts | 85° |
| 2026-04-27 22:29 | 18.47641 | -73.03634 | 35966 ft | 530 kts | 85° |
| 2026-04-27 22:30 | 18.48678 | -72.95938 | 35963 ft | 531 kts | 85° |
| 2026-04-27 22:30 | 18.49718 | -72.88229 | 35964 ft | 532 kts | 85° |
| 2026-04-27 22:31 | 18.50793 | -72.80516 | 35963 ft | 532 kts | 85° |
| 2026-04-27 22:31 | 18.51872 | -72.72801 | 35963 ft | 532 kts | 85° |
| 2026-04-27 22:32 | 18.52942 | -72.65089 | 35963 ft | 532 kts | 85° |
| 2026-04-27 22:32 | 18.54007 | -72.57370 | 35964 ft | 532 kts | 85° |
| 2026-04-27 22:33 | 18.55068 | -72.49652 | 35960 ft | 532 kts | 85° |
| 2026-04-27 22:33 | 18.56124 | -72.41944 | 35965 ft | 531 kts | 85° |
| 2026-04-27 22:34 | 18.57128 | -72.34285 | 35963 ft | 529 kts | 89° |
| 2026-04-27 22:34 | 18.57191 | -72.26594 | 35968 ft | 522 kts | 99° |
| 2026-04-27 22:35 | 18.56177 | -72.19069 | 35968 ft | 518 kts | 104° |
| 2026-04-27 22:35 | 18.55035 | -72.11567 | 35962 ft | 519 kts | 104° |
| 2026-04-27 22:36 | 18.53943 | -72.04040 | 35969 ft | 519 kts | 103° |
| 2026-04-27 22:36 | 18.52877 | -71.96509 | 35965 ft | 520 kts | 103° |
| 2026-04-27 22:37 | 18.51812 | -71.88982 | 35971 ft | 521 kts | 102° |
| 2026-04-27 22:37 | 18.51355 | -71.81325 | 35970 ft | 525 kts | 96° |
| 2026-04-27 22:38 | 18.51149 | -71.73626 | 35964 ft | 525 kts | 96° |
| 2026-04-27 22:38 | 18.50933 | -71.65931 | 35960 ft | 524 kts | 96° |
| 2026-04-27 22:39 | 18.50676 | -71.58263 | 35958 ft | 524 kts | 97° |
| 2026-04-27 22:39 | 18.50399 | -71.50585 | 35954 ft | 524 kts | 97° |
| 2026-04-27 22:40 | 18.50123 | -71.42961 | 35953 ft | 524 kts | 97° |
| 2026-04-27 22:40 | 18.49845 | -71.35284 | 35945 ft | 524 kts | 97° |
| 2026-04-27 22:41 | 18.49564 | -71.27626 | 35946 ft | 524 kts | 97° |
| 2026-04-27 22:41 | 18.49282 | -71.19966 | 35985 ft | 526 kts | 97° |
| 2026-04-27 22:41 | 18.49186 | -71.17419 | 36136 ft | 528 kts | 97° |
| 2026-04-27 22:42 | 18.49041 | -71.13550 | 36602 ft | 525 kts | 97° |
| 2026-04-27 22:42 | 18.48898 | -71.09714 | 36981 ft | 522 kts | 97° |
| 2026-04-27 22:42 | 18.48757 | -71.05909 | 36922 ft | 517 kts | 97° |
| 2026-04-27 22:43 | 18.48474 | -70.98409 | 36947 ft | 511 kts | 97° |
| 2026-04-27 22:43 | 18.48182 | -70.90925 | 36946 ft | 510 kts | 97° |
| 2026-04-27 22:44 | 18.47891 | -70.83464 | 36958 ft | 509 kts | 97° |
| 2026-04-27 22:44 | 18.47598 | -70.76013 | 36956 ft | 509 kts | 97° |
| 2026-04-27 22:45 | 18.47302 | -70.68555 | 36965 ft | 509 kts | 97° |
| 2026-04-27 22:45 | 18.47003 | -70.61106 | 36968 ft | 509 kts | 97° |
| 2026-04-27 22:46 | 18.46701 | -70.53648 | 36971 ft | 510 kts | 97° |
| 2026-04-27 22:46 | 18.46399 | -70.46187 | 36983 ft | 509 kts | 97° |
| 2026-04-27 22:47 | 18.46088 | -70.38732 | 36979 ft | 510 kts | 97° |
| 2026-04-27 22:47 | 18.45780 | -70.31321 | 36962 ft | 508 kts | 97° |
| 2026-04-27 22:48 | 18.45467 | -70.23892 | 37001 ft | 508 kts | 97° |
| 2026-04-27 22:48 | 18.45154 | -70.16453 | 36992 ft | 508 kts | 97° |
| 2026-04-27 22:49 | 18.44654 | -70.09033 | 36995 ft | 506 kts | 101° |
| 2026-04-27 22:49 | 18.43949 | -70.01660 | 36991 ft | 506 kts | 100° |
| 2026-04-27 22:50 | 18.43511 | -69.94291 | 37000 ft | 509 kts | 95° |
| 2026-04-27 22:50 | 18.43505 | -69.86820 | 36992 ft | 510 kts | 94° |
| 2026-04-27 22:51 | 18.43491 | -69.79351 | 36990 ft | 510 kts | 95° |
| 2026-04-27 22:51 | 18.43438 | -69.71881 | 36992 ft | 510 kts | 95° |
| 2026-04-27 22:52 | 18.43182 | -69.64444 | 36990 ft | 505 kts | 102° |
| 2026-04-27 22:52 | 18.42196 | -69.57134 | 36997 ft | 503 kts | 104° |
| 2026-04-27 22:53 | 18.41151 | -69.49849 | 36994 ft | 503 kts | 103° |
| 2026-04-27 22:53 | 18.40136 | -69.42548 | 36996 ft | 504 kts | 103° |
| 2026-04-27 22:54 | 18.39147 | -69.35282 | 37002 ft | 504 kts | 103° |
| 2026-04-27 22:54 | 18.38157 | -69.27972 | 36999 ft | 504 kts | 103° |
| 2026-04-27 22:55 | 18.37160 | -69.20657 | 37010 ft | 505 kts | 103° |
| 2026-04-27 22:55 | 18.36158 | -69.13336 | 37014 ft | 505 kts | 103° |
| 2026-04-27 22:56 | 18.35152 | -69.06009 | 37020 ft | 505 kts | 103° |
| 2026-04-27 22:56 | 18.34143 | -68.98685 | 37021 ft | 505 kts | 103° |
| 2026-04-27 22:57 | 18.33132 | -68.91367 | 37018 ft | 505 kts | 103° |
| 2026-04-27 22:57 | 18.32119 | -68.84046 | 37018 ft | 505 kts | 103° |
| 2026-04-27 22:58 | 18.31104 | -68.76718 | 37021 ft | 505 kts | 103° |
| 2026-04-27 22:58 | 18.30096 | -68.69409 | 37016 ft | 505 kts | 103° |
| 2026-04-27 22:59 | 18.29095 | -68.62151 | 37016 ft | 504 kts | 103° |
| 2026-04-27 22:59 | 18.28090 | -68.54888 | 37000 ft | 493 kts | 103° |
| 2026-04-27 22:59 | 18.27598 | -68.51331 | 36706 ft | 488 kts | 103° |
| 2026-04-27 23:00 | 18.26623 | -68.44338 | 35851 ft | 478 kts | 103° |
| 2026-04-27 23:00 | 18.26143 | -68.40897 | 35420 ft | 475 kts | 103° |
| 2026-04-27 23:00 | 18.25651 | -68.37467 | 34965 ft | 471 kts | 104° |
| 2026-04-27 23:01 | 18.25147 | -68.34087 | 34510 ft | 468 kts | 104° |
| 2026-04-27 23:01 | 18.24638 | -68.30720 | 34072 ft | 464 kts | 104° |
| 2026-04-27 23:01 | 18.24131 | -68.27377 | 33636 ft | 461 kts | 104° |
| 2026-04-27 23:01 | 18.23629 | -68.24057 | 33193 ft | 457 kts | 104° |
| 2026-04-27 23:02 | 18.23133 | -68.20764 | 32752 ft | 454 kts | 104° |
| 2026-04-27 23:02 | 18.22640 | -68.17488 | 32316 ft | 452 kts | 104° |
| 2026-04-27 23:02 | 18.22151 | -68.14240 | 31884 ft | 449 kts | 103° |
| 2026-04-27 23:02 | 18.21668 | -68.11044 | 31454 ft | 446 kts | 103° |
| 2026-04-27 23:03 | 18.21178 | -68.07792 | 31015 ft | 443 kts | 103° |
| 2026-04-27 23:03 | 18.20704 | -68.04650 | 30593 ft | 440 kts | 103° |
| 2026-04-27 23:03 | 18.20225 | -68.01478 | 30168 ft | 437 kts | 103° |
| 2026-04-27 23:03 | 18.19879 | -67.98307 | 29732 ft | 436 kts | 95° |
| 2026-04-27 23:04 | 18.19890 | -67.95118 | 29328 ft | 435 kts | 91° |
| 2026-04-27 23:04 | 18.20030 | -67.91941 | 28888 ft | 433 kts | 90° |
| 2026-04-27 23:04 | 18.20204 | -67.88783 | 28461 ft | 431 kts | 89° |
| 2026-04-27 23:04 | 18.20369 | -67.85648 | 28037 ft | 428 kts | 90° |
| 2026-04-27 23:05 | 18.20513 | -67.82533 | 27614 ft | 426 kts | 90° |
| 2026-04-27 23:05 | 18.20638 | -67.79429 | 27188 ft | 423 kts | 90° |
| 2026-04-27 23:05 | 18.20747 | -67.76343 | 26764 ft | 421 kts | 90° |
| 2026-04-27 23:05 | 18.20845 | -67.73276 | 26344 ft | 419 kts | 91° |
| 2026-04-27 23:06 | 18.20938 | -67.70219 | 25925 ft | 417 kts | 91° |
| 2026-04-27 23:06 | 18.21031 | -67.67182 | 25506 ft | 414 kts | 90° |
| 2026-04-27 23:06 | 18.21122 | -67.64161 | 25089 ft | 412 kts | 90° |
| 2026-04-27 23:06 | 18.21211 | -67.61156 | 24675 ft | 410 kts | 90° |
| 2026-04-27 23:07 | 18.21300 | -67.58163 | 24265 ft | 408 kts | 90° |
| 2026-04-27 23:07 | 18.21388 | -67.55226 | 23855 ft | 406 kts | 90° |
| 2026-04-27 23:07 | 18.21477 | -67.52263 | 23453 ft | 404 kts | 90° |
| 2026-04-27 23:07 | 18.21565 | -67.49317 | 23032 ft | 403 kts | 90° |
| 2026-04-27 23:08 | 18.21652 | -67.46368 | 22621 ft | 401 kts | 90° |
| 2026-04-27 23:08 | 18.21739 | -67.43444 | 22200 ft | 399 kts | 90° |
| 2026-04-27 23:08 | 18.21823 | -67.40537 | 21797 ft | 397 kts | 90° |
| 2026-04-27 23:08 | 18.21907 | -67.37643 | 21384 ft | 395 kts | 90° |
| 2026-04-27 23:09 | 18.21989 | -67.34757 | 20968 ft | 393 kts | 90° |
| 2026-04-27 23:09 | 18.22070 | -67.31889 | 20562 ft | 392 kts | 90° |
| 2026-04-27 23:09 | 18.22151 | -67.29025 | 20137 ft | 390 kts | 90° |
| 2026-04-27 23:09 | 18.22232 | -67.26181 | 19721 ft | 389 kts | 90° |
| 2026-04-27 23:10 | 18.22312 | -67.23340 | 19303 ft | 388 kts | 90° |
| 2026-04-27 23:10 | 18.22391 | -67.20514 | 18884 ft | 386 kts | 90° |
| 2026-04-27 23:10 | 18.22470 | -67.17694 | 18475 ft | 385 kts | 90° |
| 2026-04-27 23:10 | 18.22549 | -67.14886 | 18044 ft | 384 kts | 90° |
| 2026-04-27 23:11 | 18.22626 | -67.12086 | 17620 ft | 382 kts | 90° |
| 2026-04-27 23:11 | 18.22704 | -67.09290 | 17198 ft | 381 kts | 90° |
| 2026-04-27 23:11 | 18.22781 | -67.06515 | 16753 ft | 380 kts | 90° |
| 2026-04-27 23:11 | 18.22855 | -67.03776 | 16313 ft | 379 kts | 90° |
| 2026-04-27 23:12 | 18.22929 | -67.01008 | 15890 ft | 377 kts | 90° |
| 2026-04-27 23:12 | 18.23002 | -66.98255 | 15457 ft | 376 kts | 90° |
| 2026-04-27 23:12 | 18.23076 | -66.95512 | 15030 ft | 374 kts | 90° |
| 2026-04-27 23:12 | 18.23149 | -66.92776 | 14611 ft | 373 kts | 90° |
| 2026-04-27 23:13 | 18.23221 | -66.90061 | 14183 ft | 371 kts | 90° |
| 2026-04-27 23:13 | 18.23293 | -66.87354 | 13763 ft | 370 kts | 90° |
| 2026-04-27 23:13 | 18.23365 | -66.84660 | 13333 ft | 368 kts | 90° |
| 2026-04-27 23:13 | 18.23434 | -66.81978 | 12908 ft | 366 kts | 90° |
| 2026-04-27 23:14 | 18.23502 | -66.79368 | 12456 ft | 345 kts | 90° |
| 2026-04-27 23:14 | 18.23566 | -66.76927 | 12064 ft | 323 kts | 90° |
| 2026-04-27 23:14 | 18.23627 | -66.74612 | 11706 ft | 314 kts | 90° |
| 2026-04-27 23:14 | 18.23685 | -66.72324 | 11378 ft | 313 kts | 90° |
| 2026-04-27 23:15 | 18.23741 | -66.70031 | 11005 ft | 313 kts | 90° |
| 2026-04-27 23:15 | 18.23799 | -66.67743 | 10642 ft | 313 kts | 89° |
| 2026-04-27 23:15 | 18.23859 | -66.65453 | 10279 ft | 313 kts | 89° |
| 2026-04-27 23:15 | 18.23919 | -66.63224 | 10122 ft | 296 kts | 90° |
| 2026-04-27 23:16 | 18.23968 | -66.61123 | 9966 ft | 279 kts | 90° |
| 2026-04-27 23:16 | 18.24015 | -66.59137 | 9742 ft | 266 kts | 90° |
| 2026-04-27 23:16 | 18.24063 | -66.57213 | 9487 ft | 263 kts | 89° |
| 2026-04-27 23:16 | 18.24112 | -66.55210 | 9215 ft | 281 kts | 89° |
| 2026-04-27 23:17 | 18.24163 | -66.53153 | 8888 ft | 286 kts | 89° |
| 2026-04-27 23:17 | 18.24229 | -66.51062 | 8541 ft | 284 kts | 85° |
| 2026-04-27 23:17 | 18.24827 | -66.49088 | 8188 ft | 280 kts | 59° |
| 2026-04-27 23:17 | 18.25908 | -66.47409 | 7897 ft | 276 kts | 57° |
| 2026-04-27 23:18 | 18.26974 | -66.45761 | 7586 ft | 275 kts | 57° |
| 2026-04-27 23:18 | 18.28046 | -66.44087 | 7195 ft | 276 kts | 57° |
| 2026-04-27 23:18 | 18.29119 | -66.42403 | 6847 ft | 277 kts | 57° |
| 2026-04-27 23:18 | 18.30191 | -66.40724 | 6524 ft | 276 kts | 57° |
| 2026-04-27 23:19 | 18.31262 | -66.39041 | 6197 ft | 276 kts | 58° |
| 2026-04-27 23:19 | 18.32326 | -66.37366 | 5883 ft | 275 kts | 58° |
| 2026-04-27 23:19 | 18.33386 | -66.35698 | 5562 ft | 274 kts | 57° |
| 2026-04-27 23:19 | 18.34443 | -66.34030 | 5247 ft | 273 kts | 58° |
| 2026-04-27 23:20 | 18.35494 | -66.32371 | 4927 ft | 272 kts | 58° |
| 2026-04-27 23:20 | 18.36538 | -66.30728 | 4619 ft | 269 kts | 58° |
| 2026-04-27 23:20 | 18.37576 | -66.29097 | 4302 ft | 267 kts | 58° |
| 2026-04-27 23:20 | 18.38601 | -66.27485 | 3989 ft | 264 kts | 58° |
| 2026-04-27 23:21 | 18.39622 | -66.25882 | 3697 ft | 263 kts | 58° |
| 2026-04-27 23:21 | 18.40619 | -66.24313 | 3432 ft | 260 kts | 58° |
| 2026-04-27 23:21 | 18.41621 | -66.22737 | 3311 ft | 250 kts | 58° |
| 2026-04-27 23:21 | 18.42546 | -66.21285 | 3163 ft | 226 kts | 59° |
| 2026-04-27 23:22 | 18.43153 | -66.19906 | 3049 ft | 197 kts | 85° |
| 2026-04-27 23:22 | 18.43276 | -66.18519 | 3090 ft | 189 kts | 86° |
| 2026-04-27 23:22 | 18.43367 | -66.17155 | 2840 ft | 184 kts | 90° |
| 2026-04-27 23:22 | 18.43386 | -66.15845 | 2614 ft | 174 kts | 92° |
| 2026-04-27 23:23 | 18.43386 | -66.14567 | 2417 ft | 176 kts | 92° |
| 2026-04-27 23:23 | 18.43384 | -66.13299 | 2246 ft | 168 kts | 92° |
| 2026-04-27 23:23 | 18.43383 | -66.12120 | 1995 ft | 152 kts | 92° |
| 2026-04-27 23:23 | 18.43379 | -66.11067 | 1815 ft | 142 kts | 93° |
| 2026-04-27 23:24 | 18.43375 | -66.10020 | 1632 ft | 143 kts | 93° |
| 2026-04-27 23:24 | 18.43373 | -66.08972 | 1442 ft | 144 kts | 92° |
| 2026-04-27 23:24 | 18.43371 | -66.07919 | 1259 ft | 144 kts | 92° |
| 2026-04-27 23:24 | 18.43369 | -66.07221 | 1119 ft | 144 kts | 92° |
| 2026-04-27 23:25 | 18.43367 | -66.06169 | 930 ft | 143 kts | 92° |
| 2026-04-27 23:25 | 18.43363 | -66.05117 | 739 ft | 144 kts | 90° |
| 2026-04-27 23:25 | 18.43362 | -66.04059 | 549 ft | 144 kts | 90° |
| 2026-04-27 23:25 | 18.43358 | -66.03002 | 360 ft | 144 kts | 90° |
| 2026-04-27 23:26 | 18.43355 | -66.01957 | 173 ft | 143 kts | 90° |
| 2026-04-27 23:26 | 18.43358 | -66.00910 | 26 ft | 139 kts | 90° |
| 2026-04-27 23:26 | 18.43355 | -66.00112 | 26 ft | 43 kts | 90° |
| 2026-04-27 23:26 | 18.43402 | -65.99920 | 29 ft | 0 kts | 57° |
| 2026-04-27 23:27 | 18.43407 | -65.99912 | 26 ft | 3 kts | 57° |
| 2026-04-27 23:27 | 18.43421 | -65.99889 | 26 ft | 5 kts | 57° |
| 2026-04-27 23:27 | 18.43445 | -65.99853 | 24 ft | 7 kts | 51° |
| 2026-04-27 23:27 | 18.43487 | -65.99824 | 24 ft | 8 kts | 18° |
| 2026-04-27 23:28 | 18.43542 | -65.99831 | 24 ft | 8 kts | 321° |
| 2026-04-27 23:28 | 18.43558 | -65.99891 | 24 ft | 9 kts | 275° |
| 2026-04-27 23:28 | 18.43560 | -65.99961 | 24 ft | 10 kts | 270° |
| 2026-04-27 23:28 | 18.43560 | -66.00038 | 24 ft | 11 kts | 270° |
| 2026-04-27 23:29 | 18.43557 | -66.00121 | 24 ft | 12 kts | 265° |
| 2026-04-27 23:29 | 18.43545 | -66.00208 | 27 ft | 12 kts | 238° |
| 2026-04-27 23:29 | 18.43480 | -66.00263 | 23 ft | 13 kts | 251° |
| 2026-04-27 23:29 | 18.43475 | -66.00357 | 24 ft | 13 kts | 271° |
| 2026-04-27 23:30 | 18.43476 | -66.00452 | 24 ft | 13 kts | 271° |
| 2026-04-27 23:30 | 18.43478 | -66.00547 | 26 ft | 13 kts | 271° |
| 2026-04-27 23:30 | 18.43479 | -66.00643 | 25 ft | 13 kts | 271° |
| 2026-04-27 23:30 | 18.43480 | -66.00742 | 24 ft | 8 kts | 271° |
| 2026-04-27 23:31 | 18.43480 | -66.00750 | 24 ft | 1 kts | 274° |
| 2026-04-27 23:31 | 18.43492 | -66.00771 | 26 ft | 4 kts | 311° |
| 2026-04-27 23:31 | 18.43521 | -66.00783 | 24 ft | 5 kts | 7° |
| 2026-04-27 23:31 | 18.43551 | -66.00769 | 25 ft | 5 kts | 29° |
| 2026-04-27 23:32 | 18.43558 | -66.00762 | 24 ft | 1 kts | 43° |
| 2026-04-27 23:32 | 18.43560 | -66.00760 | 27 ft | 0 kts | 48° |